Etusivu
METAR-TAF:

METAR-TAF

Lentoasemat :

Linköpingin lentoasema

Linköping, Ruotsi

Leveyspiiri: 58-24N, Pituuspiiri: 015-41E, korkeus merenpinnasta: 52 m

Tämänhetkinen sää

Tämä raportti tehtiin 12 minuuttia sitten, kello 00.50 UTC
Tuuli 4 kn lännestä/lounaasta, vaihdellen etelän/lounaan ja lännen välillä
Lämpötila 16°C
Kosteus 77%
Ilmanpaine 1008 hPa
Näkyvyys 10 km tai enemmän

METAR: ESSL 220050Z AUTO 24004KT 200V280 9999 NCD 16/12 Q1008

Aika: 03:02 (01:02 UTC)

Sääennuste

Tämä raportti tehtiin 5 tuntia ja 32 minuuttia sitten, kello 19.30 UTC
Ennuste voimassa 21. päivästä klo 20 UTC - 21. päivään klo 22 UTC
Tuuli 10 kn lännestä
Näkyvyys 10 km tai enemmän
ei pilviä alle 1500 m:ssä eikä cumulonimbus-pilviä

TAF: ESSL 211930Z 2120/2122 27010KT CAVOK

Säähavainnot ja -ennusteet yli 4000 lentoasemalta (METAR- ja TAF-raportit).

Käytössä olevat sääasemat on merkitty karttaan keltaisilla ja punaisilla pisteillä.

Aseta hiiri pisteen päälle nähdäksesi sääaseman nimen.

Klikkaa sitten nähdäksesi säähavainnot ja -ennusteet.

Kartan vaihtaminen: klikkaa mustalla rastilla varustettuja vihreitä pisteitä, niin voit zoomata sisään; viivalla varustettua vihreää pistettä, niin voit zoomata ulos tai vihreitä nuolia, niin pääset viereisille kartoille.


METAR-TAF: